Aviation Digital Data Service (ADDS)

Output produced by METARs form (1821 UTC 19 April 2019)
found at http://www.aviationweather.gov/metar/data/
 
Forecast for: WSSS (SINGAPORE/CHANGI, SG)
Text: TAF WSSS 191700Z 1918/2100 28007KT 9999 FEW015 SCT020
Forecast period: 1800 UTC 19 April 2019 to 0000 UTC 21 April 2019
Forecast type: FROM: standard forecast or significant change
Winds: from the W (280 degrees) at 8 MPH (7 knots; 3.6 m/s)
Visibility: 6 or more miles 10+ km)
Ceiling: at least 12,000 feet AGL
Clouds: few clouds at 1500 feet AGL
scattered clouds at 2000 feet AGL
Weather: no significant weather forecast for this period
Text: TEMPO 2005/2010 2500 TSRA FEW012CB BKN015
Forecast period: 0500 to 1000 UTC 20 April 2019
Forecast type: TEMPORARY: The following changes expected for less than half the time period
Visibility: 1.55 miles (2.49 km)
Ceiling: 1500 feet AGL
Clouds: few clouds at 1200 feet AGL
broken clouds at 1500 feet AGL
Weather: TSRA  (rain associated with thunderstorm(s))